RJTL(METAR)
06/27 01:00
METAR RJTL 261600Z 20006KT 160V240 9999 FEW030 SCT/// 23/21 Q1011
RMK 1CU030 A2986=
戻る
トップページへ戻る
IMOC Co,.Ltd.